sensor_id;sensor_type;location;lat;lon;timestamp;temperature;humidity
25933;DHT22;13731;51.166;4.474;2023-07-08T00:02:10;20.60;1.00
25933;DHT22;13731;51.166;4.474;2023-07-08T00:04:37;20.60;1.00
25933;DHT22;13731;51.166;4.474;2023-07-08T00:07:03;20.50;1.00
25933;DHT22;13731;51.166;4.474;2023-07-08T00:09:29;20.50;6.30
25933;DHT22;13731;51.166;4.474;2023-07-08T00:11:55;20.40;16.70
25933;DHT22;13731;51.166;4.474;2023-07-08T00:14:23;20.50;29.50
25933;DHT22;13731;51.166;4.474;2023-07-08T00:16:49;20.50;45.70
25933;DHT22;13731;51.166;4.474;2023-07-08T00:19:15;20.40;56.20
25933;DHT22;13731;51.166;4.474;2023-07-08T00:21:44;20.30;84.60
25933;DHT22;13731;51.166;4.474;2023-07-08T00:24:10;20.20;99.90
25933;DHT22;13731;51.166;4.474;2023-07-08T00:26:37;20.20;99.90
25933;DHT22;13731;51.166;4.474;2023-07-08T00:29:05;20.20;99.90
25933;DHT22;13731;51.166;4.474;2023-07-08T00:31:33;20.20;99.90
25933;DHT22;13731;51.166;4.474;2023-07-08T00:33:58;20.10;99.90
25933;DHT22;13731;51.166;4.474;2023-07-08T00:36:25;20.10;99.90
25933;DHT22;13731;51.166;4.474;2023-07-08T00:38:51;20.00;99.90
25933;DHT22;13731;51.166;4.474;2023-07-08T00:41:21;20.00;99.90
25933;DHT22;13731;51.166;4.474;2023-07-08T00:43:49;19.90;99.90
25933;DHT22;13731;51.166;4.474;2023-07-08T00:46:22;19.80;99.90
25933;DHT22;13731;51.166;4.474;2023-07-08T00:48:51;19.90;99.90
25933;DHT22;13731;51.166;4.474;2023-07-08T00:51:18;19.90;99.90
25933;DHT22;13731;51.166;4.474;2023-07-08T00:53:44;19.80;99.90
25933;DHT22;13731;51.166;4.474;2023-07-08T00:56:21;19.80;99.90
25933;DHT22;13731;51.166;4.474;2023-07-08T01:01:18;19.70;99.90
25933;DHT22;13731;51.166;4.474;2023-07-08T01:03:48;19.80;99.90
25933;DHT22;13731;51.166;4.474;2023-07-08T01:06:16;19.70;99.90
25933;DHT22;13731;51.166;4.474;2023-07-08T01:08:41;19.70;99.90
25933;DHT22;13731;51.166;4.474;2023-07-08T01:11:10;19.70;99.90
25933;DHT22;13731;51.166;4.474;2023-07-08T01:13:40;19.70;99.90
25933;DHT22;13731;51.166;4.474;2023-07-08T01:16:07;19.70;99.90
25933;DHT22;13731;51.166;4.474;2023-07-08T01:18:33;19.60;99.90
25933;DHT22;13731;51.166;4.474;2023-07-08T01:21:04;19.50;99.90
25933;DHT22;13731;51.166;4.474;2023-07-08T01:23:34;19.60;99.90
25933;DHT22;13731;51.166;4.474;2023-07-08T01:26:00;19.60;99.90
25933;DHT22;13731;51.166;4.474;2023-07-08T01:28:26;19.50;99.90
25933;DHT22;13731;51.166;4.474;2023-07-08T01:30:54;19.40;99.90
25933;DHT22;13731;51.166;4.474;2023-07-08T01:33:20;19.40;99.90
25933;DHT22;13731;51.166;4.474;2023-07-08T01:35:47;19.30;99.90
25933;DHT22;13731;51.166;4.474;2023-07-08T01:38:16;19.30;99.90
25933;DHT22;13731;51.166;4.474;2023-07-08T01:40:50;19.20;99.90
25933;DHT22;13731;51.166;4.474;2023-07-08T01:43:16;19.20;99.90
25933;DHT22;13731;51.166;4.474;2023-07-08T01:45:42;19.20;1.00
25933;DHT22;13731;51.166;4.474;2023-07-08T01:48:10;19.20;99.90
25933;DHT22;13731;51.166;4.474;2023-07-08T01:50:37;19.10;1.00
25933;DHT22;13731;51.166;4.474;2023-07-08T01:53:06;18.90;1.00
25933;DHT22;13731;51.166;4.474;2023-07-08T01:55:35;18.90;1.00
25933;DHT22;13731;51.166;4.474;2023-07-08T01:58:00;18.90;1.00
25933;DHT22;13731;51.166;4.474;2023-07-08T02:00:26;18.80;1.00
25933;DHT22;13731;51.166;4.474;2023-07-08T02:02:52;18.90;1.00
25933;DHT22;13731;51.166;4.474;2023-07-08T02:05:18;18.90;1.00
25933;DHT22;13731;51.166;4.474;2023-07-08T02:07:44;18.90;1.00
25933;DHT22;13731;51.166;4.474;2023-07-08T02:10:09;18.90;1.00
25933;DHT22;13731;51.166;4.474;2023-07-08T02:12:35;18.80;1.00
25933;DHT22;13731;51.166;4.474;2023-07-08T02:15:02;18.80;1.00
25933;DHT22;13731;51.166;4.474;2023-07-08T02:17:28;18.70;1.00
25933;DHT22;13731;51.166;4.474;2023-07-08T02:19:54;18.70;1.00
25933;DHT22;13731;51.166;4.474;2023-07-08T02:22:20;18.60;49.90
25933;DHT22;13731;51.166;4.474;2023-07-08T02:24:46;18.60;74.00
25933;DHT22;13731;51.166;4.474;2023-07-08T02:27:13;18.50;99.90
25933;DHT22;13731;51.166;4.474;2023-07-08T02:29:39;18.50;99.90
25933;DHT22;13731;51.166;4.474;2023-07-08T02:32:05;18.50;99.90
25933;DHT22;13731;51.166;4.474;2023-07-08T02:34:32;18.40;99.90
25933;DHT22;13731;51.166;4.474;2023-07-08T02:36:58;18.30;99.90
25933;DHT22;13731;51.166;4.474;2023-07-08T02:39:24;18.10;99.90
25933;DHT22;13731;51.166;4.474;2023-07-08T02:41:50;18.10;99.90
25933;DHT22;13731;51.166;4.474;2023-07-08T02:44:15;18.10;99.90
25933;DHT22;13731;51.166;4.474;2023-07-08T02:46:41;18.00;99.90
25933;DHT22;13731;51.166;4.474;2023-07-08T02:49:07;18.00;99.90
25933;DHT22;13731;51.166;4.474;2023-07-08T02:51:32;18.00;1.00
25933;DHT22;13731;51.166;4.474;2023-07-08T02:53:58;18.00;99.90
25933;DHT22;13731;51.166;4.474;2023-07-08T02:56:24;18.00;99.90
25933;DHT22;13731;51.166;4.474;2023-07-08T02:58:52;17.90;99.90
25933;DHT22;13731;51.166;4.474;2023-07-08T03:01:18;18.10;99.90
25933;DHT22;13731;51.166;4.474;2023-07-08T03:03:47;18.10;99.90
25933;DHT22;13731;51.166;4.474;2023-07-08T03:06:13;18.10;99.90
25933;DHT22;13731;51.166;4.474;2023-07-08T03:08:39;17.90;1.00
25933;DHT22;13731;51.166;4.474;2023-07-08T03:11:06;17.80;1.00
25933;DHT22;13731;51.166;4.474;2023-07-08T03:13:33;17.70;1.00
25933;DHT22;13731;51.166;4.474;2023-07-08T03:16:00;17.70;1.00
25933;DHT22;13731;51.166;4.474;2023-07-08T03:18:26;17.60;94.90
25933;DHT22;13731;51.166;4.474;2023-07-08T03:20:53;17.60;99.90
25933;DHT22;13731;51.166;4.474;2023-07-08T03:23:22;17.60;99.90
25933;DHT22;13731;51.166;4.474;2023-07-08T03:25:49;17.60;99.90
25933;DHT22;13731;51.166;4.474;2023-07-08T03:28:17;17.60;99.90
25933;DHT22;13731;51.166;4.474;2023-07-08T03:30:44;17.60;99.90
25933;DHT22;13731;51.166;4.474;2023-07-08T03:33:11;17.50;99.90
25933;DHT22;13731;51.166;4.474;2023-07-08T03:35:39;17.50;99.90
25933;DHT22;13731;51.166;4.474;2023-07-08T03:38:05;17.50;1.00
25933;DHT22;13731;51.166;4.474;2023-07-08T03:40:31;17.50;1.00
25933;DHT22;13731;51.166;4.474;2023-07-08T03:42:57;17.50;1.00
25933;DHT22;13731;51.166;4.474;2023-07-08T03:45:25;17.60;99.90
25933;DHT22;13731;51.166;4.474;2023-07-08T03:47:51;17.60;99.90
25933;DHT22;13731;51.166;4.474;2023-07-08T03:50:18;17.50;99.90
25933;DHT22;13731;51.166;4.474;2023-07-08T03:52:45;17.50;99.90
25933;DHT22;13731;51.166;4.474;2023-07-08T03:55:11;17.50;99.90
25933;DHT22;13731;51.166;4.474;2023-07-08T03:57:38;17.60;99.90
25933;DHT22;13731;51.166;4.474;2023-07-08T04:00:04;17.60;1.00
25933;DHT22;13731;51.166;4.474;2023-07-08T04:02:39;17.50;99.90
25933;DHT22;13731;51.166;4.474;2023-07-08T04:05:08;17.50;1.00
25933;DHT22;13731;51.166;4.474;2023-07-08T04:07:35;17.60;99.90
25933;DHT22;13731;51.166;4.474;2023-07-08T04:10:01;17.70;99.90
25933;DHT22;13731;51.166;4.474;2023-07-08T04:12:27;17.80;99.90
25933;DHT22;13731;51.166;4.474;2023-07-08T04:14:52;17.80;99.90
25933;DHT22;13731;51.166;4.474;2023-07-08T04:17:18;17.90;99.90
25933;DHT22;13731;51.166;4.474;2023-07-08T04:19:44;18.00;52.30
25933;DHT22;13731;51.166;4.474;2023-07-08T04:22:10;18.00;39.80
25933;DHT22;13731;51.166;4.474;2023-07-08T04:24:36;17.90;88.70
25933;DHT22;13731;51.166;4.474;2023-07-08T04:27:02;17.90;99.90
25933;DHT22;13731;51.166;4.474;2023-07-08T04:29:28;18.00;99.90
25933;DHT22;13731;51.166;4.474;2023-07-08T04:31:54;18.00;99.90
25933;DHT22;13731;51.166;4.474;2023-07-08T04:34:20;18.10;99.90
25933;DHT22;13731;51.166;4.474;2023-07-08T04:36:46;18.10;99.90
25933;DHT22;13731;51.166;4.474;2023-07-08T04:39:12;18.10;99.90
25933;DHT22;13731;51.166;4.474;2023-07-08T04:41:39;18.10;99.90
25933;DHT22;13731;51.166;4.474;2023-07-08T04:44:09;18.10;99.90
25933;DHT22;13731;51.166;4.474;2023-07-08T04:46:40;18.10;70.90
25933;DHT22;13731;51.166;4.474;2023-07-08T04:49:06;18.10;83.20
25933;DHT22;13731;51.166;4.474;2023-07-08T04:51:35;18.10;99.90
25933;DHT22;13731;51.166;4.474;2023-07-08T04:54:01;18.20;26.70
25933;DHT22;13731;51.166;4.474;2023-07-08T04:56:37;18.30;1.00
25933;DHT22;13731;51.166;4.474;2023-07-08T04:59:03;18.40;1.00
25933;DHT22;13731;51.166;4.474;2023-07-08T05:01:30;18.40;1.00
25933;DHT22;13731;51.166;4.474;2023-07-08T05:03:56;18.40;1.00
25933;DHT22;13731;51.166;4.474;2023-07-08T05:06:22;18.40;1.00
25933;DHT22;13731;51.166;4.474;2023-07-08T05:08:47;18.50;1.00
25933;DHT22;13731;51.166;4.474;2023-07-08T05:11:13;18.50;1.00
25933;DHT22;13731;51.166;4.474;2023-07-08T05:13:39;18.50;1.00
25933;DHT22;13731;51.166;4.474;2023-07-08T05:16:04;18.60;1.00
25933;DHT22;13731;51.166;4.474;2023-07-08T05:18:30;18.70;99.90
25933;DHT22;13731;51.166;4.474;2023-07-08T05:20:56;18.80;99.90
25933;DHT22;13731;51.166;4.474;2023-07-08T05:23:22;18.90;99.90
25933;DHT22;13731;51.166;4.474;2023-07-08T05:25:47;19.00;99.90
25933;DHT22;13731;51.166;4.474;2023-07-08T05:28:13;19.10;99.90
25933;DHT22;13731;51.166;4.474;2023-07-08T05:30:40;19.20;99.90
25933;DHT22;13731;51.166;4.474;2023-07-08T05:33:06;19.20;99.90
25933;DHT22;13731;51.166;4.474;2023-07-08T05:35:34;19.30;99.90
25933;DHT22;13731;51.166;4.474;2023-07-08T05:38:01;19.40;90.10
25933;DHT22;13731;51.166;4.474;2023-07-08T05:40:26;19.40;56.60
25933;DHT22;13731;51.166;4.474;2023-07-08T05:42:52;19.50;34.10
25933;DHT22;13731;51.166;4.474;2023-07-08T05:45:18;19.60;26.20
25933;DHT22;13731;51.166;4.474;2023-07-08T05:47:44;19.80;1.00
25933;DHT22;13731;51.166;4.474;2023-07-08T05:50:09;20.00;1.00
25933;DHT22;13731;51.166;4.474;2023-07-08T05:52:35;20.20;1.00
25933;DHT22;13731;51.166;4.474;2023-07-08T05:55:01;20.30;1.00
25933;DHT22;13731;51.166;4.474;2023-07-08T05:57:27;20.40;1.00
25933;DHT22;13731;51.166;4.474;2023-07-08T05:59:52;20.40;1.00
25933;DHT22;13731;51.166;4.474;2023-07-08T06:02:18;20.40;1.00
25933;DHT22;13731;51.166;4.474;2023-07-08T06:04:47;20.50;1.00
25933;DHT22;13731;51.166;4.474;2023-07-08T06:07:12;20.50;1.00
25933;DHT22;13731;51.166;4.474;2023-07-08T06:09:39;20.50;1.00
25933;DHT22;13731;51.166;4.474;2023-07-08T06:12:04;20.40;1.00
25933;DHT22;13731;51.166;4.474;2023-07-08T06:14:30;20.50;1.00
25933;DHT22;13731;51.166;4.474;2023-07-08T06:16:57;20.60;1.00
25933;DHT22;13731;51.166;4.474;2023-07-08T06:19:23;20.60;1.00
25933;DHT22;13731;51.166;4.474;2023-07-08T06:21:49;20.70;1.00
25933;DHT22;13731;51.166;4.474;2023-07-08T06:24:15;20.90;1.00
25933;DHT22;13731;51.166;4.474;2023-07-08T06:26:41;21.00;1.00
25933;DHT22;13731;51.166;4.474;2023-07-08T06:29:06;21.10;1.00
25933;DHT22;13731;51.166;4.474;2023-07-08T06:31:32;21.20;1.00
25933;DHT22;13731;51.166;4.474;2023-07-08T06:33:59;21.20;99.90
25933;DHT22;13731;51.166;4.474;2023-07-08T06:36:25;21.20;99.90
25933;DHT22;13731;51.166;4.474;2023-07-08T06:38:51;21.30;99.90
25933;DHT22;13731;51.166;4.474;2023-07-08T06:41:16;21.40;99.90
25933;DHT22;13731;51.166;4.474;2023-07-08T06:43:42;21.50;99.90
25933;DHT22;13731;51.166;4.474;2023-07-08T06:46:20;21.70;99.90
25933;DHT22;13731;51.166;4.474;2023-07-08T06:48:46;21.80;99.90
25933;DHT22;13731;51.166;4.474;2023-07-08T06:51:11;21.80;99.90
25933;DHT22;13731;51.166;4.474;2023-07-08T06:53:37;21.90;99.90
25933;DHT22;13731;51.166;4.474;2023-07-08T06:56:03;22.00;99.90
25933;DHT22;13731;51.166;4.474;2023-07-08T06:58:29;22.30;99.90
25933;DHT22;13731;51.166;4.474;2023-07-08T07:00:54;22.40;99.90
25933;DHT22;13731;51.166;4.474;2023-07-08T07:03:20;22.50;99.90
25933;DHT22;13731;51.166;4.474;2023-07-08T07:05:46;22.50;99.90
25933;DHT22;13731;51.166;4.474;2023-07-08T07:08:11;22.60;99.90
25933;DHT22;13731;51.166;4.474;2023-07-08T07:10:37;22.50;99.90
25933;DHT22;13731;51.166;4.474;2023-07-08T07:13:03;22.60;99.90
25933;DHT22;13731;51.166;4.474;2023-07-08T07:15:29;22.50;99.90
25933;DHT22;13731;51.166;4.474;2023-07-08T07:17:56;22.60;99.90
25933;DHT22;13731;51.166;4.474;2023-07-08T07:20:22;22.70;99.90
25933;DHT22;13731;51.166;4.474;2023-07-08T07:22:47;22.90;99.90
25933;DHT22;13731;51.166;4.474;2023-07-08T07:25:13;23.10;99.90
25933;DHT22;13731;51.166;4.474;2023-07-08T07:27:39;23.20;99.90
25933;DHT22;13731;51.166;4.474;2023-07-08T07:30:05;23.20;99.90
25933;DHT22;13731;51.166;4.474;2023-07-08T07:32:31;23.30;99.90
25933;DHT22;13731;51.166;4.474;2023-07-08T07:34:58;23.40;99.90
25933;DHT22;13731;51.166;4.474;2023-07-08T07:37:25;23.50;99.90
25933;DHT22;13731;51.166;4.474;2023-07-08T07:39:51;23.70;99.90
25933;DHT22;13731;51.166;4.474;2023-07-08T07:42:17;23.90;99.90
25933;DHT22;13731;51.166;4.474;2023-07-08T07:44:44;23.80;99.90
25933;DHT22;13731;51.166;4.474;2023-07-08T07:47:09;24.00;99.90
25933;DHT22;13731;51.166;4.474;2023-07-08T07:49:35;24.30;99.90
25933;DHT22;13731;51.166;4.474;2023-07-08T07:52:01;24.40;99.90
25933;DHT22;13731;51.166;4.474;2023-07-08T07:54:27;24.40;99.90
25933;DHT22;13731;51.166;4.474;2023-07-08T07:56:53;24.40;99.90
25933;DHT22;13731;51.166;4.474;2023-07-08T07:59:19;24.40;99.90
25933;DHT22;13731;51.166;4.474;2023-07-08T08:01:45;24.60;99.90
25933;DHT22;13731;51.166;4.474;2023-07-08T08:04:11;24.80;99.90
25933;DHT22;13731;51.166;4.474;2023-07-08T08:06:37;24.90;99.90
25933;DHT22;13731;51.166;4.474;2023-07-08T08:09:06;24.90;99.90
25933;DHT22;13731;51.166;4.474;2023-07-08T08:11:32;24.90;99.90
25933;DHT22;13731;51.166;4.474;2023-07-08T08:13:59;24.90;99.90
25933;DHT22;13731;51.166;4.474;2023-07-08T08:16:25;25.00;99.90
25933;DHT22;13731;51.166;4.474;2023-07-08T08:18:51;25.20;99.90
25933;DHT22;13731;51.166;4.474;2023-07-08T08:21:17;25.30;99.90
25933;DHT22;13731;51.166;4.474;2023-07-08T08:23:42;25.40;99.90
25933;DHT22;13731;51.166;4.474;2023-07-08T08:26:08;25.50;99.90
25933;DHT22;13731;51.166;4.474;2023-07-08T08:28:34;25.70;98.20
25933;DHT22;13731;51.166;4.474;2023-07-08T08:31:00;25.90;94.70
25933;DHT22;13731;51.166;4.474;2023-07-08T08:33:25;26.10;94.40
25933;DHT22;13731;51.166;4.474;2023-07-08T08:35:51;26.20;62.50
25933;DHT22;13731;51.166;4.474;2023-07-08T08:38:17;26.40;47.50
25933;DHT22;13731;51.166;4.474;2023-07-08T08:40:45;26.60;29.30
25933;DHT22;13731;51.166;4.474;2023-07-08T08:45:43;26.30;19.50
25933;DHT22;13731;51.166;4.474;2023-07-08T08:48:10;26.60;18.90
25933;DHT22;13731;51.166;4.474;2023-07-08T08:53:10;27.00;1.00
25933;DHT22;13731;51.166;4.474;2023-07-08T08:55:36;27.00;1.00
25933;DHT22;13731;51.166;4.474;2023-07-08T09:00:42;27.40;1.00
25933;DHT22;13731;51.166;4.474;2023-07-08T09:03:11;27.40;1.00
25933;DHT22;13731;51.166;4.474;2023-07-08T09:05:38;27.50;1.00
25933;DHT22;13731;51.166;4.474;2023-07-08T09:08:15;27.50;1.00
25933;DHT22;13731;51.166;4.474;2023-07-08T09:13:47;27.60;2.60
25933;DHT22;13731;51.166;4.474;2023-07-08T09:16:06;27.40;1.00
25933;DHT22;13731;51.166;4.474;2023-07-08T09:18:33;27.50;4.00
25933;DHT22;13731;51.166;4.474;2023-07-08T09:23:30;28.00;1.00
25933;DHT22;13731;51.166;4.474;2023-07-08T09:26:02;28.10;1.00
25933;DHT22;13731;51.166;4.474;2023-07-08T09:28:39;28.10;1.00
25933;DHT22;13731;51.166;4.474;2023-07-08T09:31:06;28.20;1.00
25933;DHT22;13731;51.166;4.474;2023-07-08T09:33:32;28.10;1.00
25933;DHT22;13731;51.166;4.474;2023-07-08T09:35:59;28.30;1.00
25933;DHT22;13731;51.166;4.474;2023-07-08T09:38:26;28.60;1.00
25933;DHT22;13731;51.166;4.474;2023-07-08T09:40:52;28.50;1.00
25933;DHT22;13731;51.166;4.474;2023-07-08T09:45:46;28.60;1.00
25933;DHT22;13731;51.166;4.474;2023-07-08T09:48:17;28.70;1.00
25933;DHT22;13731;51.166;4.474;2023-07-08T09:50:46;28.80;1.00
25933;DHT22;13731;51.166;4.474;2023-07-08T09:53:13;29.30;1.00
25933;DHT22;13731;51.166;4.474;2023-07-08T09:55:39;29.60;1.00
25933;DHT22;13731;51.166;4.474;2023-07-08T09:58:05;29.70;1.00
25933;DHT22;13731;51.166;4.474;2023-07-08T10:00:38;29.90;1.00
25933;DHT22;13731;51.166;4.474;2023-07-08T10:03:05;30.20;1.00
25933;DHT22;13731;51.166;4.474;2023-07-08T10:05:33;30.30;1.00
25933;DHT22;13731;51.166;4.474;2023-07-08T10:08:00;30.30;1.00
25933;DHT22;13731;51.166;4.474;2023-07-08T10:10:30;30.50;1.00
25933;DHT22;13731;51.166;4.474;2023-07-08T10:12:58;30.60;1.00
25933;DHT22;13731;51.166;4.474;2023-07-08T10:15:32;31.10;1.00
25933;DHT22;13731;51.166;4.474;2023-07-08T10:17:59;33.00;1.00
25933;DHT22;13731;51.166;4.474;2023-07-08T10:20:27;34.50;1.00
25933;DHT22;13731;51.166;4.474;2023-07-08T10:23:56;36.30;1.00
25933;DHT22;13731;51.166;4.474;2023-07-08T10:25:53;36.00;1.00
25933;DHT22;13731;51.166;4.474;2023-07-08T10:38:35;39.30;1.00
25933;DHT22;13731;51.166;4.474;2023-07-08T10:41:10;39.00;1.00
25933;DHT22;13731;51.166;4.474;2023-07-08T10:43:53;38.40;1.00
25933;DHT22;13731;51.166;4.474;2023-07-08T10:56:19;41.70;1.00
25933;DHT22;13731;51.166;4.474;2023-07-08T10:58:52;39.20;1.00
25933;DHT22;13731;51.166;4.474;2023-07-08T11:01:37;38.30;1.00
25933;DHT22;13731;51.166;4.474;2023-07-08T11:04:08;38.80;1.00
25933;DHT22;13731;51.166;4.474;2023-07-08T11:09:05;40.60;1.00
25933;DHT22;13731;51.166;4.474;2023-07-08T11:11:43;42.10;1.00
25933;DHT22;13731;51.166;4.474;2023-07-08T11:14:15;42.40;1.00
25933;DHT22;13731;51.166;4.474;2023-07-08T11:16:47;40.30;1.00
25933;DHT22;13731;51.166;4.474;2023-07-08T11:19:25;38.90;1.00
25933;DHT22;13731;51.166;4.474;2023-07-08T11:21:52;40.30;1.00
25933;DHT22;13731;51.166;4.474;2023-07-08T11:24:22;40.60;1.00
25933;DHT22;13731;51.166;4.474;2023-07-08T11:32:14;43.30;1.00
25933;DHT22;13731;51.166;4.474;2023-07-08T11:34:41;42.40;1.00
25933;DHT22;13731;51.166;4.474;2023-07-08T11:37:08;42.00;1.00
25933;DHT22;13731;51.166;4.474;2023-07-08T11:39:44;40.80;1.00
25933;DHT22;13731;51.166;4.474;2023-07-08T11:44:36;41.70;1.00
25933;DHT22;13731;51.166;4.474;2023-07-08T11:47:17;40.50;1.00
25933;DHT22;13731;51.166;4.474;2023-07-08T11:49:45;39.10;1.00
25933;DHT22;13731;51.166;4.474;2023-07-08T11:52:13;39.50;1.00
25933;DHT22;13731;51.166;4.474;2023-07-08T11:54:45;39.00;1.00
25933;DHT22;13731;51.166;4.474;2023-07-08T11:57:16;41.30;1.00
25933;DHT22;13731;51.166;4.474;2023-07-08T11:59:42;40.90;1.00
25933;DHT22;13731;51.166;4.474;2023-07-08T12:02:14;41.50;1.00
25933;DHT22;13731;51.166;4.474;2023-07-08T12:04:56;43.10;1.00
25933;DHT22;13731;51.166;4.474;2023-07-08T12:10:28;41.50;1.00
25933;DHT22;13731;51.166;4.474;2023-07-08T12:12:57;43.40;1.00
25933;DHT22;13731;51.166;4.474;2023-07-08T12:15:24;42.20;1.00
25933;DHT22;13731;51.166;4.474;2023-07-08T12:17:52;40.70;1.00
25933;DHT22;13731;51.166;4.474;2023-07-08T12:20:34;41.00;1.00
25933;DHT22;13731;51.166;4.474;2023-07-08T12:23:00;39.60;1.00
25933;DHT22;13731;51.166;4.474;2023-07-08T12:25:29;38.70;1.00
25933;DHT22;13731;51.166;4.474;2023-07-08T12:27:56;39.40;1.00
25933;DHT22;13731;51.166;4.474;2023-07-08T12:30:22;41.20;1.00
25933;DHT22;13731;51.166;4.474;2023-07-08T12:32:49;43.30;1.00
25933;DHT22;13731;51.166;4.474;2023-07-08T12:35:20;42.00;1.00
25933;DHT22;13731;51.166;4.474;2023-07-08T12:37:46;41.60;1.00
25933;DHT22;13731;51.166;4.474;2023-07-08T12:40:12;43.40;1.00
25933;DHT22;13731;51.166;4.474;2023-07-08T12:42:39;43.30;1.00
25933;DHT22;13731;51.166;4.474;2023-07-08T12:45:15;43.00;1.00
25933;DHT22;13731;51.166;4.474;2023-07-08T12:47:41;42.10;1.00
25933;DHT22;13731;51.166;4.474;2023-07-08T12:50:08;41.50;1.00
25933;DHT22;13731;51.166;4.474;2023-07-08T12:52:34;40.60;1.00
25933;DHT22;13731;51.166;4.474;2023-07-08T12:54:59;40.70;1.00
25933;DHT22;13731;51.166;4.474;2023-07-08T12:57:25;41.30;1.00
25933;DHT22;13731;51.166;4.474;2023-07-08T12:59:51;41.20;1.00
25933;DHT22;13731;51.166;4.474;2023-07-08T13:02:18;41.20;1.00
25933;DHT22;13731;51.166;4.474;2023-07-08T13:04:49;41.60;1.00
25933;DHT22;13731;51.166;4.474;2023-07-08T13:07:22;41.70;1.00
25933;DHT22;13731;51.166;4.474;2023-07-08T13:09:49;41.40;1.00
25933;DHT22;13731;51.166;4.474;2023-07-08T13:12:17;42.00;1.00
25933;DHT22;13731;51.166;4.474;2023-07-08T13:14:48;44.40;1.00
25933;DHT22;13731;51.166;4.474;2023-07-08T13:17:14;43.10;1.00
25933;DHT22;13731;51.166;4.474;2023-07-08T13:19:41;42.80;1.00
25933;DHT22;13731;51.166;4.474;2023-07-08T13:22:17;43.60;1.00
25933;DHT22;13731;51.166;4.474;2023-07-08T13:24:44;43.60;1.00
25933;DHT22;13731;51.166;4.474;2023-07-08T13:27:14;42.90;1.00
25933;DHT22;13731;51.166;4.474;2023-07-08T13:29:42;41.80;1.00
25933;DHT22;13731;51.166;4.474;2023-07-08T13:32:09;43.60;1.00
25933;DHT22;13731;51.166;4.474;2023-07-08T13:34:35;42.70;1.00
25933;DHT22;13731;51.166;4.474;2023-07-08T13:37:01;41.00;1.00
25933;DHT22;13731;51.166;4.474;2023-07-08T13:39:27;39.90;1.00
25933;DHT22;13731;51.166;4.474;2023-07-08T13:41:54;39.90;1.00
25933;DHT22;13731;51.166;4.474;2023-07-08T13:44:20;40.30;1.00
25933;DHT22;13731;51.166;4.474;2023-07-08T13:50:15;38.70;1.00
25933;DHT22;13731;51.166;4.474;2023-07-08T13:52:06;37.80;1.00
25933;DHT22;13731;51.166;4.474;2023-07-08T13:54:33;35.80;1.00
25933;DHT22;13731;51.166;4.474;2023-07-08T13:57:00;35.20;1.00
25933;DHT22;13731;51.166;4.474;2023-07-08T13:59:26;34.50;1.00
25933;DHT22;13731;51.166;4.474;2023-07-08T14:01:54;33.10;1.00
25933;DHT22;13731;51.166;4.474;2023-07-08T14:04:22;31.80;1.00
25933;DHT22;13731;51.166;4.474;2023-07-08T14:06:50;30.90;1.00
25933;DHT22;13731;51.166;4.474;2023-07-08T14:09:17;30.20;1.00
25933;DHT22;13731;51.166;4.474;2023-07-08T14:11:43;29.70;1.00
25933;DHT22;13731;51.166;4.474;2023-07-08T14:14:09;29.10;1.00
25933;DHT22;13731;51.166;4.474;2023-07-08T14:16:36;27.90;1.00
25933;DHT22;13731;51.166;4.474;2023-07-08T14:19:03;27.00;1.00
25933;DHT22;13731;51.166;4.474;2023-07-08T14:21:31;26.80;1.00
25933;DHT22;13731;51.166;4.474;2023-07-08T14:23:57;27.10;1.00
25933;DHT22;13731;51.166;4.474;2023-07-08T14:26:23;27.40;1.00
25933;DHT22;13731;51.166;4.474;2023-07-08T14:28:49;27.50;1.00
25933;DHT22;13731;51.166;4.474;2023-07-08T14:31:15;27.50;1.00
25933;DHT22;13731;51.166;4.474;2023-07-08T14:33:43;27.20;1.00
25933;DHT22;13731;51.166;4.474;2023-07-08T14:36:12;26.80;1.00
25933;DHT22;13731;51.166;4.474;2023-07-08T14:38:38;25.90;1.00
25933;DHT22;13731;51.166;4.474;2023-07-08T14:41:04;25.10;1.00
25933;DHT22;13731;51.166;4.474;2023-07-08T14:43:30;24.70;99.90
25933;DHT22;13731;51.166;4.474;2023-07-08T14:45:57;24.50;1.00
25933;DHT22;13731;51.166;4.474;2023-07-08T14:48:24;25.00;99.90
25933;DHT22;13731;51.166;4.474;2023-07-08T14:50:50;25.70;99.90
25933;DHT22;13731;51.166;4.474;2023-07-08T14:53:16;26.40;99.90
25933;DHT22;13731;51.166;4.474;2023-07-08T14:55:44;27.50;1.00
25933;DHT22;13731;51.166;4.474;2023-07-08T14:58:14;28.80;99.90
25933;DHT22;13731;51.166;4.474;2023-07-08T15:00:43;30.10;99.90
25933;DHT22;13731;51.166;4.474;2023-07-08T15:03:09;31.80;34.60
25933;DHT22;13731;51.166;4.474;2023-07-08T15:05:35;32.60;1.00
25933;DHT22;13731;51.166;4.474;2023-07-08T15:08:01;33.10;1.00
25933;DHT22;13731;51.166;4.474;2023-07-08T15:10:28;34.60;1.00
25933;DHT22;13731;51.166;4.474;2023-07-08T15:12:54;35.70;1.00
25933;DHT22;13731;51.166;4.474;2023-07-08T15:15:21;36.00;1.00
25933;DHT22;13731;51.166;4.474;2023-07-08T15:17:50;37.70;1.00
25933;DHT22;13731;51.166;4.474;2023-07-08T15:20:17;37.80;1.00
25933;DHT22;13731;51.166;4.474;2023-07-08T15:22:43;37.70;1.00
25933;DHT22;13731;51.166;4.474;2023-07-08T15:25:09;36.90;1.00
25933;DHT22;13731;51.166;4.474;2023-07-08T15:27:35;36.40;1.00
25933;DHT22;13731;51.166;4.474;2023-07-08T15:30:01;35.70;1.00
25933;DHT22;13731;51.166;4.474;2023-07-08T15:32:27;36.80;1.00
25933;DHT22;13731;51.166;4.474;2023-07-08T15:34:53;37.70;1.00
25933;DHT22;13731;51.166;4.474;2023-07-08T15:37:19;38.40;1.00
25933;DHT22;13731;51.166;4.474;2023-07-08T15:39:44;40.40;1.00
25933;DHT22;13731;51.166;4.474;2023-07-08T15:42:11;40.80;1.00
25933;DHT22;13731;51.166;4.474;2023-07-08T15:44:38;41.70;1.00
25933;DHT22;13731;51.166;4.474;2023-07-08T15:47:04;41.90;1.00
25933;DHT22;13731;51.166;4.474;2023-07-08T15:49:31;40.40;1.00
25933;DHT22;13731;51.166;4.474;2023-07-08T15:51:59;40.90;1.00
25933;DHT22;13731;51.166;4.474;2023-07-08T15:54:25;41.40;1.00
25933;DHT22;13731;51.166;4.474;2023-07-08T15:56:52;41.90;1.00
25933;DHT22;13731;51.166;4.474;2023-07-08T15:59:23;40.70;1.00
25933;DHT22;13731;51.166;4.474;2023-07-08T16:01:50;40.20;1.00
25933;DHT22;13731;51.166;4.474;2023-07-08T16:04:23;40.90;1.00
25933;DHT22;13731;51.166;4.474;2023-07-08T16:06:49;41.50;1.00
25933;DHT22;13731;51.166;4.474;2023-07-08T16:09:15;41.40;1.00
25933;DHT22;13731;51.166;4.474;2023-07-08T16:11:41;40.90;1.00
25933;DHT22;13731;51.166;4.474;2023-07-08T16:14:11;40.30;1.00
25933;DHT22;13731;51.166;4.474;2023-07-08T16:16:37;40.70;1.00
25933;DHT22;13731;51.166;4.474;2023-07-08T16:19:03;40.30;1.00
25933;DHT22;13731;51.166;4.474;2023-07-08T16:21:29;41.00;1.00
25933;DHT22;13731;51.166;4.474;2023-07-08T16:23:54;41.10;1.00
25933;DHT22;13731;51.166;4.474;2023-07-08T16:26:20;40.90;1.00
25933;DHT22;13731;51.166;4.474;2023-07-08T16:28:46;40.40;1.00
25933;DHT22;13731;51.166;4.474;2023-07-08T16:31:17;39.40;1.00
25933;DHT22;13731;51.166;4.474;2023-07-08T16:33:44;40.00;1.00
25933;DHT22;13731;51.166;4.474;2023-07-08T16:36:19;40.10;1.00